createdAt,value
2023-12-04T00:00:53.365Z,8.43
2023-12-04T00:04:54.966Z,7.30
2023-12-04T00:08:56.510Z,8.17
2023-12-04T00:12:59.515Z,8.13
2023-12-04T00:17:01.069Z,7.73
2023-12-04T00:21:02.607Z,7.97
2023-12-04T00:25:05.075Z,6.37
2023-12-04T00:29:07.984Z,6.77
2023-12-04T00:33:10.993Z,8.00
2023-12-04T00:37:12.748Z,7.90
2023-12-04T00:41:14.390Z,8.13
2023-12-04T00:45:17.252Z,8.00
2023-12-04T00:49:18.855Z,7.77
2023-12-04T00:53:20.514Z,5.97
2023-12-04T00:57:22.154Z,6.67
2023-12-04T01:01:24.969Z,6.90
2023-12-04T01:05:26.562Z,6.50
2023-12-04T01:09:28.079Z,7.17
2023-12-04T01:13:29.877Z,7.90
2023-12-04T01:17:32.788Z,7.00
2023-12-04T01:21:34.411Z,6.20
2023-12-04T01:25:35.947Z,6.23
2023-12-04T01:29:37.479Z,7.07
2023-12-04T01:33:40.640Z,6.63
2023-12-04T01:37:42.374Z,5.97
2023-12-04T01:41:43.910Z,5.60
2023-12-04T01:45:45.696Z,6.60
2023-12-04T01:49:48.680Z,6.53
2023-12-04T01:53:51.758Z,7.40
2023-12-04T01:57:53.566Z,6.80
2023-12-04T02:01:55.275Z,6.73
2023-12-04T02:06:00.408Z,6.43
2023-12-04T02:10:02.149Z,6.97
2023-12-04T02:14:03.707Z,6.57
2023-12-04T02:18:06.141Z,6.70
2023-12-04T02:22:09.076Z,6.03
2023-12-04T02:26:17.630Z,6.90
2023-12-04T02:30:22.189Z,4.87
2023-12-04T02:34:25.126Z,6.03
2023-12-04T02:38:27.398Z,6.73
2023-12-04T02:42:30.524Z,7.07
2023-12-04T02:46:32.366Z,5.60
2023-12-04T02:50:33.824Z,7.33
2023-12-04T02:54:35.435Z,7.50
2023-12-04T02:58:38.252Z,7.07
2023-12-04T03:02:39.682Z,6.77
2023-12-04T03:06:41.193Z,4.13
2023-12-04T03:10:42.672Z,6.80
2023-12-04T03:14:45.526Z,7.07
2023-12-04T03:18:47.215Z,5.53
2023-12-04T03:22:48.762Z,6.40
2023-12-04T03:26:50.227Z,6.50
2023-12-04T03:30:53.095Z,5.67
2023-12-04T03:34:54.627Z,6.73
2023-12-04T03:38:56.092Z,6.53
2023-12-04T03:42:57.613Z,6.50
2023-12-04T03:47:00.645Z,7.03
2023-12-04T03:51:02.179Z,6.80
2023-12-04T03:55:04.636Z,6.93
2023-12-04T03:59:06.645Z,7.43
2023-12-04T04:03:09.808Z,7.47
2023-12-04T04:07:12.495Z,7.10
2023-12-04T04:11:14.429Z,6.50
2023-12-04T04:15:15.978Z,6.43
2023-12-04T04:19:18.886Z,5.27
2023-12-04T04:23:20.395Z,7.00
2023-12-04T04:27:21.879Z,6.97
2023-12-04T04:31:23.612Z,5.33
2023-12-04T04:35:26.402Z,6.67
2023-12-04T04:39:27.878Z,6.13
2023-12-04T04:43:29.612Z,7.43
2023-12-04T04:47:31.102Z,6.70
2023-12-04T04:51:34.175Z,6.47
2023-12-04T04:55:47.251Z,5.53
2023-12-04T04:59:50.727Z,5.70
2023-12-04T05:08:50.559Z,7.70
2023-12-04T05:12:52.265Z,6.83
2023-12-04T05:16:53.740Z,7.63
2023-12-04T05:20:55.231Z,7.63
2023-12-04T05:24:58.889Z,8.40
2023-12-04T05:29:00.398Z,7.57
2023-12-04T05:33:02.907Z,7.87
2023-12-04T05:37:04.818Z,6.87
2023-12-04T05:41:07.806Z,7.43
2023-12-04T05:45:10.163Z,7.83
2023-12-04T05:49:11.731Z,5.73
2023-12-04T05:53:13.527Z,8.47
2023-12-04T05:57:16.348Z,8.77
2023-12-04T06:01:18.103Z,8.37
2023-12-04T06:05:19.858Z,8.97
2023-12-04T06:09:21.370Z,8.77
2023-12-04T06:13:24.169Z,7.60
2023-12-04T06:17:25.984Z,7.47
2023-12-04T06:21:27.455Z,7.60
2023-12-04T06:25:29.858Z,7.30
2023-12-04T06:29:33.784Z,8.00
2023-12-04T06:33:36.009Z,7.87
2023-12-04T06:37:39.144Z,8.33
2023-12-04T06:41:41.537Z,8.30
2023-12-04T06:45:45.118Z,7.90
2023-12-04T06:49:46.651Z,8.20
2023-12-04T06:53:48.266Z,5.53
2023-12-04T06:57:49.823Z,4.80
2023-12-04T07:01:55.017Z,8.23
2023-12-04T07:05:56.612Z,8.03
2023-12-04T07:09:58.415Z,7.90
2023-12-04T07:13:59.982Z,5.27
2023-12-04T07:18:05.176Z,7.13
2023-12-04T07:22:06.806Z,7.10
2023-12-04T07:26:08.441Z,6.97
2023-12-04T07:30:10.625Z,7.90
2023-12-04T07:34:15.240Z,7.17
2023-12-04T07:38:16.847Z,5.93
2023-12-04T07:42:18.387Z,7.27
2023-12-04T07:46:19.996Z,6.57
2023-12-04T07:50:22.785Z,6.60
2023-12-04T07:54:24.241Z,5.30
2023-12-04T07:58:25.754Z,6.30
2023-12-04T08:02:27.505Z,6.70
2023-12-04T08:06:30.929Z,5.53
2023-12-04T08:10:32.459Z,7.00
2023-12-04T08:14:34.915Z,6.57
2023-12-04T08:18:36.841Z,5.63
2023-12-04T08:22:40.035Z,6.40
2023-12-04T08:26:41.510Z,7.00
2023-12-04T08:30:43.080Z,7.60
2023-12-04T08:34:45.196Z,6.57
2023-12-04T08:38:48.052Z,6.07
2023-12-04T08:42:49.573Z,7.13
2023-12-04T08:46:51.217Z,6.37
2023-12-04T08:50:52.765Z,6.00
2023-12-04T08:54:56.654Z,5.97
2023-12-04T08:58:58.218Z,5.43
2023-12-04T09:03:08.212Z,6.67
2023-12-04T09:08:26.741Z,5.97
2023-12-04T09:11:35.320Z,7.97
2023-12-04T09:15:36.942Z,7.23
2023-12-04T09:19:38.686Z,6.40
2023-12-04T09:23:41.418Z,7.03
2023-12-04T09:27:44.568Z,5.97
2023-12-04T09:31:46.089Z,5.00
2023-12-04T09:35:47.615Z,6.33
2023-12-04T09:39:49.069Z,6.60
2023-12-04T09:43:52.455Z,5.83
2023-12-04T09:47:55.200Z,6.07
2023-12-04T09:51:58.886Z,6.60
2023-12-04T09:56:04.371Z,4.83
2023-12-04T10:00:10.126Z,5.70
2023-12-04T10:04:11.610Z,7.30
2023-12-04T10:08:13.250Z,7.43
2023-12-04T10:12:19.371Z,6.90
2023-12-04T10:16:36.505Z,6.57
2023-12-04T10:20:52.578Z,5.13
2023-12-04T10:24:54.076Z,6.30
2023-12-04T10:29:03.576Z,5.47
2023-12-04T10:33:07.711Z,6.20
2023-12-04T10:37:11.098Z,6.63
2023-12-04T10:41:15.937Z,6.10
2023-12-04T10:45:17.977Z,5.27
2023-12-04T10:49:21.314Z,6.67
2023-12-04T10:53:22.895Z,7.07
2023-12-04T10:57:28.007Z,6.53
2023-12-04T11:01:33.368Z,6.53
2023-12-04T11:05:38.956Z,5.40
2023-12-04T11:09:41.150Z,6.47
2023-12-04T11:13:47.093Z,7.57
2023-12-04T11:17:52.277Z,6.97
2023-12-04T11:21:59.578Z,7.53
2023-12-04T11:26:02.092Z,7.73
2023-12-04T11:30:04.987Z,7.40
2023-12-04T11:34:09.861Z,7.80
2023-12-04T11:38:15.274Z,7.60
2023-12-04T11:42:20.264Z,7.73
2023-12-04T11:46:23.648Z,6.13
2023-12-04T11:50:25.835Z,8.00
2023-12-04T11:54:29.888Z,9.20
2023-12-04T11:58:31.420Z,8.07
2023-12-04T12:03:14.092Z,7.73
2023-12-04T12:06:55.499Z,7.97
2023-12-04T12:10:59.399Z,7.77
2023-12-04T12:15:01.065Z,6.20
2023-12-04T12:19:02.590Z,6.97
2023-12-04T12:23:04.625Z,7.60
2023-12-04T12:27:08.652Z,6.80
2023-12-04T12:31:11.846Z,5.60
2023-12-04T12:35:13.541Z,5.80
2023-12-04T12:39:15.525Z,6.17
2023-12-04T12:43:21.550Z,6.63
2023-12-04T12:47:24.087Z,6.77
2023-12-04T12:51:26.966Z,6.30
2023-12-04T12:55:28.775Z,6.10
2023-12-04T12:59:31.766Z,7.73
2023-12-04T13:03:33.449Z,5.33
2023-12-04T13:07:35.109Z,6.40
2023-12-04T13:11:36.616Z,6.80
2023-12-04T13:15:39.610Z,6.93
2023-12-04T13:19:41.099Z,4.37
2023-12-04T13:23:42.831Z,4.83
2023-12-04T13:27:44.389Z,5.83
2023-12-04T13:31:47.472Z,6.60
2023-12-04T13:35:49.241Z,6.50
2023-12-04T13:40:24.098Z,6.60
2023-12-04T13:44:37.840Z,5.10
2023-12-04T13:49:29.701Z,5.37
2023-12-04T13:53:53.864Z,5.30
2023-12-04T13:58:04.061Z,5.83
2023-12-04T14:02:06.352Z,5.43
2023-12-04T14:06:09.379Z,5.87
2023-12-04T14:10:12.484Z,6.37
2023-12-04T14:14:14.312Z,5.43
2023-12-04T14:18:15.871Z,5.13
2023-12-04T14:22:17.689Z,5.93
2023-12-04T14:26:20.564Z,5.57
2023-12-04T14:30:22.060Z,5.80
2023-12-04T14:34:24.111Z,6.20
2023-12-04T14:38:25.993Z,5.47
2023-12-04T14:42:29.006Z,4.10
2023-12-04T14:46:30.593Z,4.83
2023-12-04T14:50:32.202Z,4.47
2023-12-04T14:54:33.844Z,5.23
2023-12-04T14:58:36.659Z,5.50
2023-12-04T15:02:41.072Z,4.73
2023-12-04T15:06:42.727Z,5.33
2023-12-04T15:10:44.362Z,4.77
2023-12-04T15:14:47.226Z,5.50
2023-12-04T15:18:49.914Z,5.30
2023-12-04T15:22:51.536Z,5.67
2023-12-04T15:26:53.019Z,5.30
2023-12-04T15:30:56.049Z,6.00
2023-12-04T15:34:58.822Z,5.97
2023-12-04T15:39:01.203Z,4.83
2023-12-04T15:43:02.875Z,5.63
2023-12-04T15:47:06.188Z,4.63
2023-12-04T15:51:08.299Z,4.90
2023-12-04T15:55:10.140Z,6.50
2023-12-04T15:59:11.585Z,5.67
2023-12-04T16:03:15.525Z,6.27
2023-12-04T16:07:17.136Z,5.77
2023-12-04T16:11:18.798Z,6.67
2023-12-04T16:15:20.535Z,6.30
2023-12-04T16:19:23.481Z,4.53
2023-12-04T16:23:25.033Z,6.00
2023-12-04T16:27:26.635Z,4.83
2023-12-04T16:31:28.192Z,5.97
2023-12-04T16:35:31.993Z,7.73
2023-12-04T16:39:33.720Z,5.43
2023-12-04T16:43:35.243Z,6.23
2023-12-04T16:47:36.949Z,8.73
2023-12-04T16:51:39.994Z,8.53
2023-12-04T16:55:41.818Z,11.07
2023-12-04T16:59:44.568Z,10.87
2023-12-04T17:03:46.199Z,5.27
2023-12-04T17:07:49.095Z,5.90
2023-12-04T17:11:51.560Z,6.33
2023-12-04T17:15:53.060Z,6.77
2023-12-04T17:19:54.907Z,5.80
2023-12-04T17:23:57.794Z,6.40
2023-12-04T17:27:59.276Z,7.90
2023-12-04T17:32:00.860Z,5.27
2023-12-04T17:36:02.636Z,6.47
2023-12-04T17:40:06.606Z,7.63
2023-12-04T17:44:08.082Z,6.77
2023-12-04T17:48:09.639Z,7.27
2023-12-04T17:52:11.331Z,9.40
2023-12-04T17:56:14.224Z,8.37
2023-12-04T18:00:16.420Z,8.50
2023-12-04T18:04:18.071Z,7.67
2023-12-04T18:08:21.032Z,8.17
2023-12-04T18:12:24.041Z,9.33
2023-12-04T18:16:26.396Z,7.13
2023-12-04T18:20:29.304Z,9.30
2023-12-04T18:24:30.778Z,8.20
2023-12-04T18:28:34.356Z,8.93
2023-12-04T18:32:36.673Z,8.17
2023-12-04T18:36:43.000Z,7.97
2023-12-04T18:40:45.136Z,10.20
2023-12-04T18:44:48.628Z,8.73
2023-12-04T18:48:50.757Z,9.67
2023-12-04T18:52:52.831Z,8.03
2023-12-04T18:56:54.320Z,8.30
2023-12-04T19:00:57.468Z,8.93
2023-12-04T19:05:01.314Z,9.20
2023-12-04T19:09:03.129Z,7.80
2023-12-04T19:13:04.924Z,8.17
2023-12-04T19:17:07.860Z,8.83
2023-12-04T19:21:09.998Z,9.20
2023-12-04T19:25:11.515Z,6.03
2023-12-04T19:29:18.681Z,8.23
2023-12-04T19:33:28.446Z,9.37
2023-12-04T19:37:32.336Z,10.97
2023-12-04T19:41:33.839Z,10.43
2023-12-04T19:45:35.683Z,9.00
2023-12-04T19:49:43.453Z,9.20
2023-12-04T19:53:45.003Z,11.17
2023-12-04T19:57:46.539Z,10.47
2023-12-04T20:01:48.039Z,11.03
2023-12-04T20:05:51.161Z,10.03
2023-12-04T20:09:52.641Z,10.23
2023-12-04T20:13:54.127Z,8.87
2023-12-04T20:17:56.764Z,9.67
2023-12-04T20:22:00.221Z,8.77
2023-12-04T20:26:01.987Z,10.20
2023-12-04T20:30:04.271Z,10.80
2023-12-04T20:34:06.401Z,10.47
2023-12-04T20:38:09.321Z,9.00
2023-12-04T20:42:10.839Z,9.27
2023-12-04T20:46:12.338Z,10.63
2023-12-04T20:50:13.894Z,12.13
2023-12-04T20:54:17.924Z,11.80
2023-12-04T20:58:19.538Z,11.90
2023-12-04T21:02:21.016Z,12.83
2023-12-04T21:06:22.536Z,12.93
2023-12-04T21:10:25.434Z,12.00
2023-12-04T21:14:27.034Z,10.53
2023-12-04T21:18:28.706Z,11.13
2023-12-04T21:22:30.685Z,8.83
2023-12-04T21:26:33.869Z,11.50
2023-12-04T21:30:35.448Z,11.97
2023-12-04T21:34:37.161Z,11.20
2023-12-04T21:38:38.782Z,11.13
2023-12-04T21:42:42.103Z,10.83
2023-12-04T21:46:43.730Z,9.47
2023-12-04T21:50:45.317Z,10.60
2023-12-04T21:54:46.962Z,8.60
2023-12-04T21:58:49.868Z,9.90
2023-12-04T22:02:51.379Z,12.23
2023-12-04T22:06:52.966Z,11.87
2023-12-04T22:10:54.714Z,12.20
2023-12-04T22:14:57.994Z,10.33
2023-12-04T22:19:00.307Z,9.87
2023-12-04T22:23:01.828Z,10.03
2023-12-04T22:27:03.693Z,10.63
2023-12-04T22:31:07.245Z,10.67
2023-12-04T22:35:09.157Z,12.43
2023-12-04T22:39:10.766Z,12.67
2023-12-04T22:43:12.510Z,12.17
2023-12-04T22:47:15.475Z,12.83
2023-12-04T22:51:17.023Z,12.47
2023-12-04T22:55:18.514Z,10.93
2023-12-04T22:59:20.188Z,12.77
2023-12-04T23:03:23.092Z,13.23
2023-12-04T23:07:24.614Z,13.17
2023-12-04T23:11:27.122Z,12.13
2023-12-04T23:15:28.719Z,13.73
2023-12-04T23:19:32.303Z,13.30
2023-12-04T23:23:33.949Z,12.93
2023-12-04T23:27:38.128Z,9.57
2023-12-04T23:31:40.290Z,12.17
2023-12-04T23:35:43.103Z,11.80
2023-12-04T23:39:44.634Z,11.67
2023-12-04T23:43:46.157Z,12.60
2023-12-04T23:47:47.716Z,11.83
2023-12-04T23:51:51.729Z,12.80
2023-12-04T23:55:53.194Z,12.13
2023-12-04T23:59:54.670Z,13.53
